sensor_id;sensor_type;location;lat;lon;timestamp;pressure;altitude;pressure_sealevel;temperature;humidity
71567;BME280;59403;47.456;19.120;2023-03-14T00:00:17;99634.22;;;7.68;59.45
71567;BME280;59403;47.456;19.120;2023-03-14T00:02:45;99639.69;;;7.74;59.41
71567;BME280;59403;47.456;19.120;2023-03-14T00:05:12;99633.78;;;7.80;59.06
71567;BME280;59403;47.456;19.120;2023-03-14T00:07:40;99634.25;;;7.76;59.40
71567;BME280;59403;47.456;19.120;2023-03-14T00:10:10;99634.34;;;7.66;59.40
71567;BME280;59403;47.456;19.120;2023-03-14T00:12:41;99626.16;;;7.69;59.53
71567;BME280;59403;47.456;19.120;2023-03-14T00:15:09;99622.84;;;7.67;60.29
71567;BME280;59403;47.456;19.120;2023-03-14T00:17:42;99604.84;;;7.55;59.91
71567;BME280;59403;47.456;19.120;2023-03-14T00:20:13;99617.38;;;7.61;60.33
71567;BME280;59403;47.456;19.120;2023-03-14T00:22:48;99570.34;;;7.40;60.50
71567;BME280;59403;47.456;19.120;2023-03-14T00:25:15;99591.41;;;7.66;59.61
71567;BME280;59403;47.456;19.120;2023-03-14T00:27:41;99591.56;;;7.72;59.26
71567;BME280;59403;47.456;19.120;2023-03-14T00:30:10;99594.38;;;7.71;59.28
71567;BME280;59403;47.456;19.120;2023-03-14T00:32:40;99591.09;;;7.77;59.40
71567;BME280;59403;47.456;19.120;2023-03-14T00:35:11;99592.09;;;7.76;59.34
71567;BME280;59403;47.456;19.120;2023-03-14T00:37:40;99551.37;;;7.70;59.06
71567;BME280;59403;47.456;19.120;2023-03-14T00:40:11;99573.66;;;7.84;59.21
71567;BME280;59403;47.456;19.120;2023-03-14T00:42:38;99566.94;;;7.89;58.76
71567;BME280;59403;47.456;19.120;2023-03-14T00:45:07;99556.72;;;7.86;59.23
71567;BME280;59403;47.456;19.120;2023-03-14T00:47:35;99563.28;;;7.82;59.33
71567;BME280;59403;47.456;19.120;2023-03-14T00:50:04;99564.63;;;7.86;59.38
71567;BME280;59403;47.456;19.120;2023-03-14T00:52:32;99559.34;;;7.86;59.55
71567;BME280;59403;47.456;19.120;2023-03-14T00:55:01;99560.66;;;7.82;59.05
71567;BME280;59403;47.456;19.120;2023-03-14T00:57:28;99558.66;;;7.76;60.34
71567;BME280;59403;47.456;19.120;2023-03-14T00:59:56;99564.63;;;7.86;59.34
71567;BME280;59403;47.456;19.120;2023-03-14T01:04:59;99549.09;;;7.75;59.80
71567;BME280;59403;47.456;19.120;2023-03-14T01:07:26;99550.41;;;7.71;60.33
71567;BME280;59403;47.456;19.120;2023-03-14T01:09:55;99549.09;;;7.75;60.05
71567;BME280;59403;47.456;19.120;2023-03-14T01:12:23;99542.53;;;7.79;60.24
71567;BME280;59403;47.456;19.120;2023-03-14T01:14:50;99540.72;;;7.80;60.43
71567;BME280;59403;47.456;19.120;2023-03-14T01:17:17;99550.75;;;7.76;60.39
71567;BME280;59403;47.456;19.120;2023-03-14T01:19:45;99540.91;;;7.86;60.06
71567;BME280;59403;47.456;19.120;2023-03-14T01:22:12;99543.53;;;7.86;60.70
71567;BME280;59403;47.456;19.120;2023-03-14T01:24:39;99534.44;;;7.81;60.12
71567;BME280;59403;47.456;19.120;2023-03-14T01:27:07;99528.84;;;7.76;60.35
71567;BME280;59403;47.456;19.120;2023-03-14T01:29:34;99517.44;;;7.67;60.53
71567;BME280;59403;47.456;19.120;2023-03-14T01:32:01;99519.78;;;7.78;60.37
71567;BME280;59403;47.456;19.120;2023-03-14T01:34:28;99517.47;;;7.75;60.86
71567;BME280;59403;47.456;19.120;2023-03-14T01:36:55;99513.47;;;7.63;61.71
71567;BME280;59403;47.456;19.120;2023-03-14T01:39:22;99497.16;;;7.60;61.54
71567;BME280;59403;47.456;19.120;2023-03-14T01:41:49;99485.59;;;7.53;61.57
71567;BME280;59403;47.456;19.120;2023-03-14T01:44:17;99485.59;;;7.53;61.56
71567;BME280;59403;47.456;19.120;2023-03-14T01:46:45;99492.50;;;7.46;62.02
71567;BME280;59403;47.456;19.120;2023-03-14T01:49:21;99484.41;;;7.39;62.55
71567;BME280;59403;47.456;19.120;2023-03-14T01:51:52;99488.38;;;7.43;62.33
71567;BME280;59403;47.456;19.120;2023-03-14T01:54:25;99487.03;;;7.39;62.16
71567;BME280;59403;47.456;19.120;2023-03-14T01:56:55;99476.78;;;7.28;62.81
71567;BME280;59403;47.456;19.120;2023-03-14T01:59:26;99461.31;;;7.25;63.08
71567;BME280;59403;47.456;19.120;2023-03-14T02:01:55;99458.66;;;7.17;64.75
71567;BME280;59403;47.456;19.120;2023-03-14T02:04:23;99447.97;;;7.19;63.58
71567;BME280;59403;47.456;19.120;2023-03-14T02:06:55;99443.81;;;7.16;64.02
71567;BME280;59403;47.456;19.120;2023-03-14T02:09:23;99445.94;;;7.13;64.92
71567;BME280;59403;47.456;19.120;2023-03-14T02:11:50;99445.28;;;7.11;64.59
71567;BME280;59403;47.456;19.120;2023-03-14T02:14:28;99442.34;;;7.14;64.32
71567;BME280;59403;47.456;19.120;2023-03-14T02:16:56;99445.44;;;7.09;64.51
71567;BME280;59403;47.456;19.120;2023-03-14T02:19:33;99443.13;;;7.06;65.14
71567;BME280;59403;47.456;19.120;2023-03-14T02:22:06;99441.16;;;7.08;65.17
71567;BME280;59403;47.456;19.120;2023-03-14T02:24:39;99429.13;;;7.06;65.59
71567;BME280;59403;47.456;19.120;2023-03-14T02:27:10;99420.44;;;7.05;65.70
71567;BME280;59403;47.456;19.120;2023-03-14T02:29:41;99415.50;;;7.10;66.44
71567;BME280;59403;47.456;19.120;2023-03-14T02:32:11;99400.69;;;7.09;65.70
71567;BME280;59403;47.456;19.120;2023-03-14T02:34:38;99394.28;;;7.04;65.94
71567;BME280;59403;47.456;19.120;2023-03-14T02:37:07;99396.06;;;7.03;67.06
71567;BME280;59403;47.456;19.120;2023-03-14T02:39:37;99383.59;;;7.13;66.73
71567;BME280;59403;47.456;19.120;2023-03-14T02:42:05;99389.00;;;7.04;66.65
71567;BME280;59403;47.456;19.120;2023-03-14T02:44:33;99393.44;;;7.03;66.72
71567;BME280;59403;47.456;19.120;2023-03-14T02:47:01;99385.53;;;7.03;67.24
71567;BME280;59403;47.456;19.120;2023-03-14T02:49:29;99385.88;;;7.00;66.94
71567;BME280;59403;47.456;19.120;2023-03-14T02:51:58;99382.56;;;6.98;68.13
71567;BME280;59403;47.456;19.120;2023-03-14T02:54:25;99381.91;;;6.96;67.41
71567;BME280;59403;47.456;19.120;2023-03-14T02:56:52;99383.75;;;7.04;67.74
71567;BME280;59403;47.456;19.120;2023-03-14T02:59:18;99384.72;;;7.11;66.82
71567;BME280;59403;47.456;19.120;2023-03-14T03:01:47;99375.53;;;7.07;66.97
71567;BME280;59403;47.456;19.120;2023-03-14T03:04:13;99366.47;;;7.09;67.41
71567;BME280;59403;47.456;19.120;2023-03-14T03:06:40;99369.94;;;7.10;67.09
71567;BME280;59403;47.456;19.120;2023-03-14T03:09:08;99375.69;;;7.13;67.13
71567;BME280;59403;47.456;19.120;2023-03-14T03:11:34;99363.22;;;7.15;67.15
71567;BME280;59403;47.456;19.120;2023-03-14T03:14:01;99365.19;;;7.21;67.35
71567;BME280;59403;47.456;19.120;2023-03-14T03:16:28;99366.34;;;7.19;67.11
71567;BME280;59403;47.456;19.120;2023-03-14T03:18:56;99355.97;;;7.17;67.40
71567;BME280;59403;47.456;19.120;2023-03-14T03:21:23;99357.78;;;7.25;67.34
71567;BME280;59403;47.456;19.120;2023-03-14T03:23:50;99358.63;;;7.25;67.60
71567;BME280;59403;47.456;19.120;2023-03-14T03:26:17;99347.56;;;7.22;67.16
71567;BME280;59403;47.456;19.120;2023-03-14T03:28:44;99344.44;;;7.18;67.47
71567;BME280;59403;47.456;19.120;2023-03-14T03:31:11;99348.38;;;7.14;67.79
71567;BME280;59403;47.456;19.120;2023-03-14T03:33:38;99337.22;;;7.12;68.72
71567;BME280;59403;47.456;19.120;2023-03-14T03:36:08;99336.72;;;7.17;68.75
71567;BME280;59403;47.456;19.120;2023-03-14T03:38:35;99332.13;;;7.19;67.98
71567;BME280;59403;47.456;19.120;2023-03-14T03:41:03;99331.59;;;7.15;68.23
71567;BME280;59403;47.456;19.120;2023-03-14T03:43:31;99331.94;;;7.20;68.43
71567;BME280;59403;47.456;19.120;2023-03-14T03:45:57;99342.12;;;7.15;69.29
71567;BME280;59403;47.456;19.120;2023-03-14T03:48:24;99330.16;;;7.21;69.42
71567;BME280;59403;47.456;19.120;2023-03-14T03:50:51;99329.31;;;7.20;68.53
71567;BME280;59403;47.456;19.120;2023-03-14T03:53:19;99318.97;;;7.35;68.37
71567;BME280;59403;47.456;19.120;2023-03-14T03:55:46;99318.16;;;7.26;68.36
71567;BME280;59403;47.456;19.120;2023-03-14T03:58:13;99320.13;;;7.32;67.82
71567;BME280;59403;47.456;19.120;2023-03-14T04:00:41;99320.94;;;7.33;68.22
71567;BME280;59403;47.456;19.120;2023-03-14T04:03:07;99322.25;;;7.37;67.63
71567;BME280;59403;47.456;19.120;2023-03-14T04:05:35;99334.44;;;7.46;67.65
71567;BME280;59403;47.456;19.120;2023-03-14T04:08:03;99336.75;;;7.33;67.63
71567;BME280;59403;47.456;19.120;2023-03-14T04:10:33;99328.34;;;7.29;68.67
71567;BME280;59403;47.456;19.120;2023-03-14T04:13:00;99326.69;;;7.28;68.09
71567;BME280;59403;47.456;19.120;2023-03-14T04:15:27;99321.13;;;7.39;67.37
71567;BME280;59403;47.456;19.120;2023-03-14T04:17:56;99319.12;;;7.33;67.38
71567;BME280;59403;47.456;19.120;2023-03-14T04:20:23;99325.88;;;7.28;67.86
71567;BME280;59403;47.456;19.120;2023-03-14T04:22:50;99309.41;;;7.34;67.61
71567;BME280;59403;47.456;19.120;2023-03-14T04:25:17;99313.72;;;7.35;67.52
71567;BME280;59403;47.456;19.120;2023-03-14T04:27:47;99314.00;;;7.24;68.19
71567;BME280;59403;47.456;19.120;2023-03-14T04:30:14;99322.41;;;7.27;67.69
71567;BME280;59403;47.456;19.120;2023-03-14T04:32:41;99317.44;;;7.16;68.65
71567;BME280;59403;47.456;19.120;2023-03-14T04:35:08;99314.47;;;7.11;69.73
71567;BME280;59403;47.456;19.120;2023-03-14T04:37:35;99308.03;;;7.06;68.90
71567;BME280;59403;47.456;19.120;2023-03-14T04:40:02;99300.97;;;6.98;69.16
71567;BME280;59403;47.456;19.120;2023-03-14T04:42:31;99298.50;;;6.97;69.47
71567;BME280;59403;47.456;19.120;2023-03-14T04:44:59;99309.03;;;6.97;70.11
71567;BME280;59403;47.456;19.120;2023-03-14T04:47:26;99319.56;;;6.97;70.29
71567;BME280;59403;47.456;19.120;2023-03-14T04:49:53;99316.75;;;6.98;69.35
71567;BME280;59403;47.456;19.120;2023-03-14T04:52:20;99314.75;;;6.92;70.13
71567;BME280;59403;47.456;19.120;2023-03-14T04:54:47;99315.09;;;6.89;70.34
71567;BME280;59403;47.456;19.120;2023-03-14T04:57:14;99322.59;;;6.76;70.42
71567;BME280;59403;47.456;19.120;2023-03-14T04:59:41;99322.25;;;6.71;70.60
71567;BME280;59403;47.456;19.120;2023-03-14T05:02:09;99318.94;;;6.69;71.12
71567;BME280;59403;47.456;19.120;2023-03-14T05:04:36;99313.69;;;6.69;70.62
71567;BME280;59403;47.456;19.120;2023-03-14T05:07:02;99318.31;;;6.67;71.06
71567;BME280;59403;47.456;19.120;2023-03-14T05:09:29;99314.50;;;6.61;71.07
71567;BME280;59403;47.456;19.120;2023-03-14T05:11:56;99305.44;;;6.64;71.20
71567;BME280;59403;47.456;19.120;2023-03-14T05:14:23;99300.25;;;6.72;71.13
71567;BME280;59403;47.456;19.120;2023-03-14T05:16:50;99298.13;;;6.83;70.21
71567;BME280;59403;47.456;19.120;2023-03-14T05:19:18;99298.81;;;6.93;69.63
71567;BME280;59403;47.456;19.120;2023-03-14T05:21:46;99297.69;;;6.96;69.48
71567;BME280;59403;47.456;19.120;2023-03-14T05:24:13;99298.50;;;7.05;69.33
71567;BME280;59403;47.456;19.120;2023-03-14T05:26:40;99292.75;;;7.09;69.06
71567;BME280;59403;47.456;19.120;2023-03-14T05:29:07;99294.41;;;7.18;68.42
71567;BME280;59403;47.456;19.120;2023-03-14T05:31:34;99278.50;;;7.28;67.80
71567;BME280;59403;47.456;19.120;2023-03-14T05:34:00;99272.88;;;7.31;67.51
71567;BME280;59403;47.456;19.120;2023-03-14T05:36:29;99266.16;;;7.36;67.42
71567;BME280;59403;47.456;19.120;2023-03-14T05:38:55;99279.81;;;7.48;66.92
71567;BME280;59403;47.456;19.120;2023-03-14T05:41:22;99277.50;;;7.53;66.63
71567;BME280;59403;47.456;19.120;2023-03-14T05:43:49;99276.84;;;7.59;66.20
71567;BME280;59403;47.456;19.120;2023-03-14T05:46:16;99272.22;;;7.69;65.88
71567;BME280;59403;47.456;19.120;2023-03-14T05:48:43;99259.53;;;7.80;65.28
71567;BME280;59403;47.456;19.120;2023-03-14T05:51:10;99258.88;;;7.86;65.00
71567;BME280;59403;47.456;19.120;2023-03-14T05:53:38;99266.56;;;8.04;64.27
71567;BME280;59403;47.456;19.120;2023-03-14T05:56:06;99268.22;;;8.13;63.09
71567;BME280;59403;47.456;19.120;2023-03-14T05:58:33;99274.09;;;8.15;63.26
71567;BME280;59403;47.456;19.120;2023-03-14T06:01:02;99282.84;;;8.24;63.08
71567;BME280;59403;47.456;19.120;2023-03-14T06:03:29;99286.13;;;8.34;62.95
71567;BME280;59403;47.456;19.120;2023-03-14T06:05:56;99284.28;;;8.42;62.67
71567;BME280;59403;47.456;19.120;2023-03-14T06:08:23;99290.19;;;8.52;61.91
71567;BME280;59403;47.456;19.120;2023-03-14T06:10:51;99290.16;;;8.60;61.41
71567;BME280;59403;47.456;19.120;2023-03-14T06:13:19;99285.63;;;8.77;60.68
71567;BME280;59403;47.456;19.120;2023-03-14T06:15:46;99291.69;;;8.85;60.80
71567;BME280;59403;47.456;19.120;2023-03-14T06:18:13;99284.91;;;8.91;60.31
71567;BME280;59403;47.456;19.120;2023-03-14T06:20:40;99282.16;;;9.07;59.91
71567;BME280;59403;47.456;19.120;2023-03-14T06:23:07;99277.00;;;9.13;59.22
71567;BME280;59403;47.456;19.120;2023-03-14T06:25:35;99281.56;;;9.19;59.52
71567;BME280;59403;47.456;19.120;2023-03-14T06:28:04;99287.91;;;9.33;58.77
71567;BME280;59403;47.456;19.120;2023-03-14T06:30:31;99279.00;;;9.34;57.97
71567;BME280;59403;47.456;19.120;2023-03-14T06:32:58;99278.66;;;9.37;58.28
71567;BME280;59403;47.456;19.120;2023-03-14T06:35:24;99290.56;;;9.33;59.32
71567;BME280;59403;47.456;19.120;2023-03-14T06:37:51;99288.06;;;9.40;58.86
71567;BME280;59403;47.456;19.120;2023-03-14T06:40:18;99283.56;;;9.40;58.38
71567;BME280;59403;47.456;19.120;2023-03-14T06:42:45;99295.81;;;9.41;58.29
71567;BME280;59403;47.456;19.120;2023-03-14T06:45:14;99290.81;;;9.46;58.05
71567;BME280;59403;47.456;19.120;2023-03-14T06:47:41;99296.44;;;9.43;59.06
71567;BME280;59403;47.456;19.120;2023-03-14T06:50:09;99290.50;;;9.41;59.37
71567;BME280;59403;47.456;19.120;2023-03-14T06:52:36;99289.28;;;9.52;59.84
71567;BME280;59403;47.456;19.120;2023-03-14T06:55:07;99287.63;;;9.51;59.18
71567;BME280;59403;47.456;19.120;2023-03-14T06:57:34;99291.94;;;9.52;59.79
71567;BME280;59403;47.456;19.120;2023-03-14T07:00:02;99286.97;;;9.49;60.09
71567;BME280;59403;47.456;19.120;2023-03-14T07:02:30;99298.38;;;9.49;59.94
71567;BME280;59403;47.456;19.120;2023-03-14T07:04:57;99294.38;;;9.53;59.89
71567;BME280;59403;47.456;19.120;2023-03-14T07:07:24;99290.41;;;9.57;59.64
71567;BME280;59403;47.456;19.120;2023-03-14T07:09:51;99295.91;;;9.70;59.52
71567;BME280;59403;47.456;19.120;2023-03-14T07:12:18;99304.75;;;9.77;59.36
71567;BME280;59403;47.456;19.120;2023-03-14T07:14:45;99294.94;;;9.86;59.37
71567;BME280;59403;47.456;19.120;2023-03-14T07:17:12;99286.09;;;9.93;58.73
71567;BME280;59403;47.456;19.120;2023-03-14T07:19:40;99280.03;;;10.07;58.46
71567;BME280;59403;47.456;19.120;2023-03-14T07:22:07;99289.06;;;10.13;59.08
71567;BME280;59403;47.456;19.120;2023-03-14T07:24:33;99289.66;;;10.23;58.65
71567;BME280;59403;47.456;19.120;2023-03-14T07:27:00;99283.78;;;10.27;59.32
71567;BME280;59403;47.456;19.120;2023-03-14T07:29:27;99292.28;;;10.38;58.35
71567;BME280;59403;47.456;19.120;2023-03-14T07:31:54;99288.53;;;10.47;57.91
71567;BME280;59403;47.456;19.120;2023-03-14T07:34:21;99287.81;;;10.53;59.34
71567;BME280;59403;47.456;19.120;2023-03-14T07:36:49;99287.00;;;10.67;58.23
71567;BME280;59403;47.456;19.120;2023-03-14T07:39:16;99279.13;;;10.73;58.36
71567;BME280;59403;47.456;19.120;2023-03-14T07:41:43;99280.22;;;10.79;59.63
71567;BME280;59403;47.456;19.120;2023-03-14T07:44:10;99274.41;;;10.90;58.38
71567;BME280;59403;47.456;19.120;2023-03-14T07:46:37;99270.47;;;11.00;57.76
71567;BME280;59403;47.456;19.120;2023-03-14T07:49:03;99259.78;;;11.08;58.05
71567;BME280;59403;47.456;19.120;2023-03-14T07:51:31;99260.81;;;11.14;57.82
71567;BME280;59403;47.456;19.120;2023-03-14T07:53:59;99255.63;;;11.20;57.41
71567;BME280;59403;47.456;19.120;2023-03-14T07:56:26;99255.09;;;11.31;57.84
71567;BME280;59403;47.456;19.120;2023-03-14T07:58:53;99259.47;;;11.39;57.17
71567;BME280;59403;47.456;19.120;2023-03-14T08:01:19;99255.34;;;11.58;56.73
71567;BME280;59403;47.456;19.120;2023-03-14T08:03:46;99247.97;;;11.53;57.72
71567;BME280;59403;47.456;19.120;2023-03-14T08:06:14;99244.06;;;11.70;57.14
71567;BME280;59403;47.456;19.120;2023-03-14T08:08:40;99232.84;;;11.75;56.28
71567;BME280;59403;47.456;19.120;2023-03-14T08:11:09;99236.38;;;11.82;57.05
71567;BME280;59403;47.456;19.120;2023-03-14T08:13:36;99232.53;;;11.84;56.72
71567;BME280;59403;47.456;19.120;2023-03-14T08:16:04;99222.63;;;11.99;55.94
71567;BME280;59403;47.456;19.120;2023-03-14T08:18:32;99218.22;;;12.13;55.95
71567;BME280;59403;47.456;19.120;2023-03-14T08:20:58;99220.72;;;12.21;56.84
71567;BME280;59403;47.456;19.120;2023-03-14T08:23:25;99199.94;;;12.31;56.34
71567;BME280;59403;47.456;19.120;2023-03-14T08:25:52;99206.97;;;12.45;55.40
71567;BME280;59403;47.456;19.120;2023-03-14T08:28:20;99202.31;;;12.60;54.53
71567;BME280;59403;47.456;19.120;2023-03-14T08:30:47;99199.28;;;12.63;54.69
71567;BME280;59403;47.456;19.120;2023-03-14T08:33:14;99206.66;;;12.74;55.52
71567;BME280;59403;47.456;19.120;2023-03-14T08:35:41;99203.44;;;12.92;54.99
71567;BME280;59403;47.456;19.120;2023-03-14T08:38:08;99191.81;;;12.99;54.65
71567;BME280;59403;47.456;19.120;2023-03-14T08:40:35;99188.19;;;13.20;54.56
71567;BME280;59403;47.456;19.120;2023-03-14T08:43:02;99203.75;;;13.49;53.42
71567;BME280;59403;47.456;19.120;2023-03-14T08:45:30;99199.84;;;13.64;51.45
71567;BME280;59403;47.456;19.120;2023-03-14T08:47:57;99193.47;;;13.85;52.51
71567;BME280;59403;47.456;19.120;2023-03-14T08:50:24;99189.78;;;13.99;50.14
71567;BME280;59403;47.456;19.120;2023-03-14T08:52:51;99182.62;;;13.93;51.21
71567;BME280;59403;47.456;19.120;2023-03-14T08:55:18;99180.16;;;13.98;50.37
71567;BME280;59403;47.456;19.120;2023-03-14T08:57:45;99178.22;;;14.25;48.72
71567;BME280;59403;47.456;19.120;2023-03-14T09:00:13;99180.75;;;14.26;48.77
71567;BME280;59403;47.456;19.120;2023-03-14T09:02:42;99177.84;;;14.34;48.75
71567;BME280;59403;47.456;19.120;2023-03-14T09:05:09;99183.53;;;14.44;49.63
71567;BME280;59403;47.456;19.120;2023-03-14T09:07:37;99165.06;;;14.49;49.47
71567;BME280;59403;47.456;19.120;2023-03-14T09:10:05;99160.16;;;14.46;49.30
71567;BME280;59403;47.456;19.120;2023-03-14T09:12:33;99165.41;;;14.59;48.58
71567;BME280;59403;47.456;19.120;2023-03-14T09:15:00;99159.31;;;14.52;49.34
71567;BME280;59403;47.456;19.120;2023-03-14T09:17:27;99169.56;;;14.55;48.21
71567;BME280;59403;47.456;19.120;2023-03-14T09:19:55;99171.47;;;14.42;48.83
71567;BME280;59403;47.456;19.120;2023-03-14T09:22:22;99167.63;;;14.69;48.05
71567;BME280;59403;47.456;19.120;2023-03-14T09:24:49;99153.88;;;14.78;49.54
71567;BME280;59403;47.456;19.120;2023-03-14T09:27:16;99157.38;;;14.72;48.75
71567;BME280;59403;47.456;19.120;2023-03-14T09:29:43;99149.53;;;14.77;49.02
71567;BME280;59403;47.456;19.120;2023-03-14T09:32:09;99141.81;;;15.01;48.86
71567;BME280;59403;47.456;19.120;2023-03-14T09:34:37;99147.47;;;15.11;48.35
71567;BME280;59403;47.456;19.120;2023-03-14T09:37:05;99131.47;;;15.11;48.41
71567;BME280;59403;47.456;19.120;2023-03-14T09:39:32;99117.94;;;15.37;48.15
71567;BME280;59403;47.456;19.120;2023-03-14T09:42:02;99116.87;;;15.44;47.48
71567;BME280;59403;47.456;19.120;2023-03-14T09:44:32;99115.75;;;15.52;47.34
71567;BME280;59403;47.456;19.120;2023-03-14T09:47:04;99111.03;;;15.54;47.52
71567;BME280;59403;47.456;19.120;2023-03-14T09:49:34;99108.28;;;15.60;47.18
71567;BME280;59403;47.456;19.120;2023-03-14T09:52:07;99108.63;;;15.70;47.08
71567;BME280;59403;47.456;19.120;2023-03-14T09:54:40;99099.34;;;15.73;48.09
71567;BME280;59403;47.456;19.120;2023-03-14T09:57:13;99107.75;;;15.95;46.69
71567;BME280;59403;47.456;19.120;2023-03-14T09:59:42;99097.84;;;15.95;47.57
71567;BME280;59403;47.456;19.120;2023-03-14T10:02:18;99103.13;;;16.20;46.94
71567;BME280;59403;47.456;19.120;2023-03-14T10:04:46;99096.53;;;16.22;46.60
71567;BME280;59403;47.456;19.120;2023-03-14T10:07:17;99080.59;;;16.45;46.03
71567;BME280;59403;47.456;19.120;2023-03-14T10:09:49;99090.16;;;16.53;46.28
71567;BME280;59403;47.456;19.120;2023-03-14T10:12:16;99084.84;;;16.35;46.66
71567;BME280;59403;47.456;19.120;2023-03-14T10:14:49;99073.19;;;16.47;46.17
71567;BME280;59403;47.456;19.120;2023-03-14T10:17:18;99071.09;;;16.49;46.86
71567;BME280;59403;47.456;19.120;2023-03-14T10:19:52;99051.84;;;16.59;46.47
71567;BME280;59403;47.456;19.120;2023-03-14T10:22:23;99051.06;;;16.70;46.09
71567;BME280;59403;47.456;19.120;2023-03-14T10:24:53;99059.72;;;16.83;45.65
71567;BME280;59403;47.456;19.120;2023-03-14T10:27:27;99048.22;;;17.06;44.79
71567;BME280;59403;47.456;19.120;2023-03-14T10:29:56;99049.16;;;17.12;44.32
71567;BME280;59403;47.456;19.120;2023-03-14T10:32:29;99037.66;;;17.23;44.42
71567;BME280;59403;47.456;19.120;2023-03-14T10:35:18;99038.47;;;17.46;44.14
71567;BME280;59403;47.456;19.120;2023-03-14T10:37:56;99041.97;;;17.47;44.37
71567;BME280;59403;47.456;19.120;2023-03-14T10:40:27;99037.62;;;17.34;43.80
71567;BME280;59403;47.456;19.120;2023-03-14T10:42:55;99027.38;;;17.43;43.72
71567;BME280;59403;47.456;19.120;2023-03-14T10:45:36;99014.16;;;17.48;43.53
71567;BME280;59403;47.456;19.120;2023-03-14T10:48:18;99020.75;;;17.45;44.28
71567;BME280;59403;47.456;19.120;2023-03-14T10:50:53;99005.97;;;17.43;44.15
71567;BME280;59403;47.456;19.120;2023-03-14T10:53:23;99004.00;;;17.38;44.33
71567;BME280;59403;47.456;19.120;2023-03-14T10:55:50;98994.59;;;17.36;44.03
71567;BME280;59403;47.456;19.120;2023-03-14T11:00:54;98997.63;;;17.28;45.46
71567;BME280;59403;47.456;19.120;2023-03-14T11:03:24;98992.38;;;17.44;45.40
71567;BME280;59403;47.456;19.120;2023-03-14T11:05:56;98987.41;;;17.48;43.31
71567;BME280;59403;47.456;19.120;2023-03-14T11:08:30;98989.44;;;17.69;43.81
71567;BME280;59403;47.456;19.120;2023-03-14T11:11:09;98982.84;;;17.88;43.98
71567;BME280;59403;47.456;19.120;2023-03-14T11:13:45;98978.38;;;18.05;44.39
71567;BME280;59403;47.456;19.120;2023-03-14T11:16:24;98971.78;;;18.24;42.04
71567;BME280;59403;47.456;19.120;2023-03-14T11:21:52;98963.69;;;18.52;40.68
71567;BME280;59403;47.456;19.120;2023-03-14T11:24:32;98944.78;;;18.59;41.83
71567;BME280;59403;47.456;19.120;2023-03-14T11:27:06;98941.63;;;18.62;40.57
71567;BME280;59403;47.456;19.120;2023-03-14T11:29:39;98942.41;;;18.79;40.91
71567;BME280;59403;47.456;19.120;2023-03-14T11:32:12;98931.12;;;18.60;40.95
71567;BME280;59403;47.456;19.120;2023-03-14T11:34:49;98927.31;;;18.73;40.63
71567;BME280;59403;47.456;19.120;2023-03-14T11:37:21;98921.63;;;18.69;39.87
71567;BME280;59403;47.456;19.120;2023-03-14T11:39:57;98913.56;;;18.36;41.00
71567;BME280;59403;47.456;19.120;2023-03-14T11:42:26;98927.75;;;18.20;42.08
71567;BME280;59403;47.456;19.120;2023-03-14T11:44:55;98920.53;;;18.21;42.02
71567;BME280;59403;47.456;19.120;2023-03-14T11:47:26;98921.38;;;18.09;42.18
71567;BME280;59403;47.456;19.120;2023-03-14T11:49:58;98903.69;;;18.08;42.63
71567;BME280;59403;47.456;19.120;2023-03-14T11:52:32;98915.59;;;18.01;41.92
71567;BME280;59403;47.456;19.120;2023-03-14T11:55:05;98904.47;;;17.92;43.59
71567;BME280;59403;47.456;19.120;2023-03-14T11:57:34;98908.72;;;18.05;43.18
71567;BME280;59403;47.456;19.120;2023-03-14T12:00:04;98906.59;;;18.07;43.41
71567;BME280;59403;47.456;19.120;2023-03-14T12:02:40;98894.72;;;18.48;42.18
71567;BME280;59403;47.456;19.120;2023-03-14T12:05:43;98901.03;;;18.91;41.33
71567;BME280;59403;47.456;19.120;2023-03-14T12:08:39;98885.50;;;18.93;40.89
71567;BME280;59403;47.456;19.120;2023-03-14T12:11:14;98873.94;;;19.31;40.42
71567;BME280;59403;47.456;19.120;2023-03-14T12:13:47;98869.03;;;19.28;40.46
71567;BME280;59403;47.456;19.120;2023-03-14T12:16:32;98871.00;;;18.94;41.16
71567;BME280;59403;47.456;19.120;2023-03-14T12:19:24;98865.50;;;18.84;40.39
71567;BME280;59403;47.456;19.120;2023-03-14T12:21:54;98864.75;;;18.67;41.83
71567;BME280;59403;47.456;19.120;2023-03-14T12:24:24;98858.56;;;18.67;41.53
71567;BME280;59403;47.456;19.120;2023-03-14T12:26:56;98854.66;;;18.58;42.25
71567;BME280;59403;47.456;19.120;2023-03-14T12:29:23;98853.22;;;18.50;42.50
71567;BME280;59403;47.456;19.120;2023-03-14T12:32:07;98851.25;;;18.46;41.64
71567;BME280;59403;47.456;19.120;2023-03-14T12:34:35;98843.59;;;18.38;41.25
71567;BME280;59403;47.456;19.120;2023-03-14T12:37:13;98839.62;;;18.24;41.72
71567;BME280;59403;47.456;19.120;2023-03-14T12:39:50;98837.78;;;18.24;41.61
71567;BME280;59403;47.456;19.120;2023-03-14T12:42:37;98836.94;;;18.24;42.60
71567;BME280;59403;47.456;19.120;2023-03-14T12:45:22;98833.59;;;18.33;41.84
71567;BME280;59403;47.456;19.120;2023-03-14T12:48:08;98839.72;;;18.12;41.89
71567;BME280;59403;47.456;19.120;2023-03-14T12:50:40;98844.19;;;18.06;42.50
71567;BME280;59403;47.456;19.120;2023-03-14T12:56:25;98821.84;;;18.01;42.37
71567;BME280;59403;47.456;19.120;2023-03-14T13:01:54;98808.88;;;17.93;42.58
71567;BME280;59403;47.456;19.120;2023-03-14T13:04:29;98798.16;;;17.93;41.75
71567;BME280;59403;47.456;19.120;2023-03-14T13:06:59;98797.41;;;17.97;40.81
71567;BME280;59403;47.456;19.120;2023-03-14T13:09:51;98804.28;;;17.93;41.09
71567;BME280;59403;47.456;19.120;2023-03-14T13:12:25;98806.66;;;17.90;41.55
71567;BME280;59403;47.456;19.120;2023-03-14T13:15:00;98811.84;;;17.80;41.14
71567;BME280;59403;47.456;19.120;2023-03-14T13:17:31;98801.62;;;17.77;41.38
71567;BME280;59403;47.456;19.120;2023-03-14T13:20:02;98793.75;;;17.70;41.30